Tall Timbers, Maryland
Current Conditions -  °F | °C
As of 9:53 PM on Wednesday 22 Oct 2014 (Local Time) from KNUI Reporting Station
Overcast Overcast  
Wind Chill: 54°   Ceiling: 3500
Heat Index: 54°   Visibility: 10mi
Dew Point: 47°   Wind: 8mph
Humidity: 77%   Direction: 310°NW
Pressure: 29.89"   Gusts: NA
Location:  38.17°N, 76.55°W
Report Text: KNUI 230153Z AUTO 31007KT 10SM OVC035 12/08 A2989 RMK AO2 SLP122 T01220083
Loading
Personal Weather Stations






























Interactive Weather Map
Tropical Storm Tracking
New forecast layout! Learn more

10-Day Weather Forecast

Advertisements
Track Severe Weather on mobile